Nuiqsut Airport Nuiqsut US
ICAO: PAQT
IATA:
Category: Medium
Scheduled Services:

Elevation: 38 ft
TransAlt. 0 ft.

Airport Communications:
ANCHORAGE CNTR:119.4
ASOS:122.5
CTAF:122.8
DEADHORSE RDO:122.5

PAQT Zoom In..

Runways:

(A) RW 05 length 4589 ft width 100 ft
---- / hdg 49

(B) RW 23 length 4589 ft width 100 ft
---- / hdg 229

Location; PAQT
Day. 13 / Time. 04.54 Zulu
* Altimeter: 29.99
* Temperature: 08° c. 46.4°f.
* Wind from: 290° Speed 10 kn.
Dewpoint: 07° c.
Visibility: 10 Statute Miles.
Clouds: Scattered 800 ft.
Clouds: Broken 1200 ft.
Clouds: Overcast 2900 ft.

PAQT 130454Z 29010KT 10SM SCT008 BKN012 OVC029 08/07 A2999 RMK (SCC FSS)

Going to: --> -->


Wind From 290°
Speed 10 kn.

 
 
jpsmedia worldairports.se 2020   terms of use